sensor_id;sensor_type;location;lat;lon;timestamp;temperature;humidity
69208;SHT31;70114;47.690;8.898;2023-10-31T00:00:29;10.80;88.52
69208;SHT31;70114;47.690;8.898;2023-10-31T00:02:54;10.80;88.61
69208;SHT31;70114;47.690;8.898;2023-10-31T00:05:19;10.73;88.88
69208;SHT31;70114;47.690;8.898;2023-10-31T00:07:45;10.78;89.12
69208;SHT31;70114;47.690;8.898;2023-10-31T00:10:10;10.75;89.24
69208;SHT31;70114;47.690;8.898;2023-10-31T00:12:36;10.75;89.33
69208;SHT31;70114;47.690;8.898;2023-10-31T00:15:01;10.67;89.29
69208;SHT31;70114;47.690;8.898;2023-10-31T00:17:26;10.74;89.15
69208;SHT31;70114;47.690;8.898;2023-10-31T00:19:52;10.74;89.19
69208;SHT31;70114;47.690;8.898;2023-10-31T00:22:17;10.71;88.95
69208;SHT31;70114;47.690;8.898;2023-10-31T00:24:43;10.61;89.30
69208;SHT31;70114;47.690;8.898;2023-10-31T00:27:08;10.77;88.80
69208;SHT31;70114;47.690;8.898;2023-10-31T00:29:34;10.75;88.95
69208;SHT31;70114;47.690;8.898;2023-10-31T00:31:59;10.81;88.82
69208;SHT31;70114;47.690;8.898;2023-10-31T00:34:25;10.85;88.58
69208;SHT31;70114;47.690;8.898;2023-10-31T00:36:50;10.83;88.44
69208;SHT31;70114;47.690;8.898;2023-10-31T00:39:15;10.78;88.68
69208;SHT31;70114;47.690;8.898;2023-10-31T00:41:44;10.75;88.91
69208;SHT31;70114;47.690;8.898;2023-10-31T00:44:12;10.71;88.45
69208;SHT31;70114;47.690;8.898;2023-10-31T00:46:38;10.75;88.25
69208;SHT31;70114;47.690;8.898;2023-10-31T00:49:04;10.70;87.79
69208;SHT31;70114;47.690;8.898;2023-10-31T00:51:29;10.61;87.33
69208;SHT31;70114;47.690;8.898;2023-10-31T00:53:55;10.63;87.49
69208;SHT31;70114;47.690;8.898;2023-10-31T00:56:20;10.61;87.28
69208;SHT31;70114;47.690;8.898;2023-10-31T00:58:45;10.57;87.69
69208;SHT31;70114;47.690;8.898;2023-10-31T01:01:11;10.53;87.67
69208;SHT31;70114;47.690;8.898;2023-10-31T01:03:36;10.49;87.62
69208;SHT31;70114;47.690;8.898;2023-10-31T01:06:03;10.43;87.91
69208;SHT31;70114;47.690;8.898;2023-10-31T01:08:28;10.39;88.35
69208;SHT31;70114;47.690;8.898;2023-10-31T01:10:55;10.40;88.38
69208;SHT31;70114;47.690;8.898;2023-10-31T01:13:20;10.37;87.93
69208;SHT31;70114;47.690;8.898;2023-10-31T01:15:46;10.42;87.69
69208;SHT31;70114;47.690;8.898;2023-10-31T01:18:11;10.37;87.81
69208;SHT31;70114;47.690;8.898;2023-10-31T01:20:37;10.49;87.30
69208;SHT31;70114;47.690;8.898;2023-10-31T01:23:03;10.42;87.52
69208;SHT31;70114;47.690;8.898;2023-10-31T01:25:29;10.37;87.35
69208;SHT31;70114;47.690;8.898;2023-10-31T01:27:54;10.43;87.36
69208;SHT31;70114;47.690;8.898;2023-10-31T01:30:19;10.46;87.04
69208;SHT31;70114;47.690;8.898;2023-10-31T01:32:45;10.52;86.64
69208;SHT31;70114;47.690;8.898;2023-10-31T01:35:10;10.40;86.80
69208;SHT31;70114;47.690;8.898;2023-10-31T01:37:35;10.46;86.68
69208;SHT31;70114;47.690;8.898;2023-10-31T01:40:01;10.37;86.81
69208;SHT31;70114;47.690;8.898;2023-10-31T01:42:26;10.35;87.03
69208;SHT31;70114;47.690;8.898;2023-10-31T01:44:52;10.29;86.94
69208;SHT31;70114;47.690;8.898;2023-10-31T01:47:17;10.28;87.04
69208;SHT31;70114;47.690;8.898;2023-10-31T01:49:43;10.32;87.08
69208;SHT31;70114;47.690;8.898;2023-10-31T01:52:08;10.28;86.82
69208;SHT31;70114;47.690;8.898;2023-10-31T01:54:34;10.30;86.75
69208;SHT31;70114;47.690;8.898;2023-10-31T01:57:01;10.28;86.57
69208;SHT31;70114;47.690;8.898;2023-10-31T01:59:28;10.30;86.46
69208;SHT31;70114;47.690;8.898;2023-10-31T02:01:54;10.30;86.38
69208;SHT31;70114;47.690;8.898;2023-10-31T02:04:21;10.32;86.48
69208;SHT31;70114;47.690;8.898;2023-10-31T02:06:46;10.32;86.36
69208;SHT31;70114;47.690;8.898;2023-10-31T02:09:11;10.30;86.36
69208;SHT31;70114;47.690;8.898;2023-10-31T02:11:37;10.35;86.13
69208;SHT31;70114;47.690;8.898;2023-10-31T02:14:03;10.30;86.16
69208;SHT31;70114;47.690;8.898;2023-10-31T02:16:28;10.26;86.10
69208;SHT31;70114;47.690;8.898;2023-10-31T02:18:53;10.20;86.41
69208;SHT31;70114;47.690;8.898;2023-10-31T02:21:20;10.20;86.27
69208;SHT31;70114;47.690;8.898;2023-10-31T02:24:02;10.22;86.21
69208;SHT31;70114;47.690;8.898;2023-10-31T02:26:32;10.20;86.24
69208;SHT31;70114;47.690;8.898;2023-10-31T02:28:58;10.20;86.45
69208;SHT31;70114;47.690;8.898;2023-10-31T02:31:24;10.26;86.40
69208;SHT31;70114;47.690;8.898;2023-10-31T02:33:49;10.16;86.21
69208;SHT31;70114;47.690;8.898;2023-10-31T02:36:15;10.22;86.23
69208;SHT31;70114;47.690;8.898;2023-10-31T02:38:40;10.29;86.08
69208;SHT31;70114;47.690;8.898;2023-10-31T02:41:06;10.28;86.31
69208;SHT31;70114;47.690;8.898;2023-10-31T02:43:31;10.35;86.28
69208;SHT31;70114;47.690;8.898;2023-10-31T02:45:56;10.26;86.55
69208;SHT31;70114;47.690;8.898;2023-10-31T02:48:23;10.20;86.16
69208;SHT31;70114;47.690;8.898;2023-10-31T02:50:50;10.25;86.11
69208;SHT31;70114;47.690;8.898;2023-10-31T02:53:15;10.19;86.52
69208;SHT31;70114;47.690;8.898;2023-10-31T02:55:41;10.29;86.24
69208;SHT31;70114;47.690;8.898;2023-10-31T02:58:06;10.26;86.30
69208;SHT31;70114;47.690;8.898;2023-10-31T03:00:31;10.22;86.45
69208;SHT31;70114;47.690;8.898;2023-10-31T03:02:57;10.16;86.86
69208;SHT31;70114;47.690;8.898;2023-10-31T03:05:22;10.16;87.10
69208;SHT31;70114;47.690;8.898;2023-10-31T03:07:48;10.15;87.21
69208;SHT31;70114;47.690;8.898;2023-10-31T03:10:13;10.20;87.02
69208;SHT31;70114;47.690;8.898;2023-10-31T03:12:38;10.18;87.23
69208;SHT31;70114;47.690;8.898;2023-10-31T03:15:04;10.18;87.28
69208;SHT31;70114;47.690;8.898;2023-10-31T03:17:30;10.12;87.46
69208;SHT31;70114;47.690;8.898;2023-10-31T03:19:55;10.12;87.41
69208;SHT31;70114;47.690;8.898;2023-10-31T03:22:21;10.05;87.31
69208;SHT31;70114;47.690;8.898;2023-10-31T03:24:46;10.02;87.49
69208;SHT31;70114;47.690;8.898;2023-10-31T03:27:12;10.09;87.42
69208;SHT31;70114;47.690;8.898;2023-10-31T03:29:37;10.09;87.49
69208;SHT31;70114;47.690;8.898;2023-10-31T03:32:02;10.03;87.36
69208;SHT31;70114;47.690;8.898;2023-10-31T03:34:30;10.05;87.19
69208;SHT31;70114;47.690;8.898;2023-10-31T03:36:55;10.08;87.15
69208;SHT31;70114;47.690;8.898;2023-10-31T03:39:20;10.06;87.14
69208;SHT31;70114;47.690;8.898;2023-10-31T03:41:46;9.98;87.42
69208;SHT31;70114;47.690;8.898;2023-10-31T03:44:12;10.03;87.46
69208;SHT31;70114;47.690;8.898;2023-10-31T03:46:37;9.97;87.47
69208;SHT31;70114;47.690;8.898;2023-10-31T03:49:02;9.95;87.35
69208;SHT31;70114;47.690;8.898;2023-10-31T03:51:28;9.89;86.67
69208;SHT31;70114;47.690;8.898;2023-10-31T03:53:53;9.75;86.95
69208;SHT31;70114;47.690;8.898;2023-10-31T03:56:19;9.75;86.42
69208;SHT31;70114;47.690;8.898;2023-10-31T03:58:44;9.68;86.45
69208;SHT31;70114;47.690;8.898;2023-10-31T04:01:09;9.65;86.12
69208;SHT31;70114;47.690;8.898;2023-10-31T04:03:35;9.60;85.96
69208;SHT31;70114;47.690;8.898;2023-10-31T04:06:00;9.54;85.78
69208;SHT31;70114;47.690;8.898;2023-10-31T04:08:25;9.52;85.69
69208;SHT31;70114;47.690;8.898;2023-10-31T04:10:51;9.50;85.44
69208;SHT31;70114;47.690;8.898;2023-10-31T04:13:16;9.50;85.51
69208;SHT31;70114;47.690;8.898;2023-10-31T04:15:41;9.47;85.50
69208;SHT31;70114;47.690;8.898;2023-10-31T04:18:07;9.44;85.58
69208;SHT31;70114;47.690;8.898;2023-10-31T04:20:32;9.47;85.64
69208;SHT31;70114;47.690;8.898;2023-10-31T04:22:58;9.46;85.45
69208;SHT31;70114;47.690;8.898;2023-10-31T04:25:23;9.43;85.85
69208;SHT31;70114;47.690;8.898;2023-10-31T04:27:49;9.37;85.73
69208;SHT31;70114;47.690;8.898;2023-10-31T04:30:15;9.39;86.16
69208;SHT31;70114;47.690;8.898;2023-10-31T04:32:41;9.30;86.23
69208;SHT31;70114;47.690;8.898;2023-10-31T04:35:06;9.27;86.17
69208;SHT31;70114;47.690;8.898;2023-10-31T04:37:32;9.34;86.32
69208;SHT31;70114;47.690;8.898;2023-10-31T04:39:57;9.27;86.18
69208;SHT31;70114;47.690;8.898;2023-10-31T04:42:22;9.37;86.15
69208;SHT31;70114;47.690;8.898;2023-10-31T04:44:48;9.29;85.83
69208;SHT31;70114;47.690;8.898;2023-10-31T04:47:13;9.33;85.90
69208;SHT31;70114;47.690;8.898;2023-10-31T04:49:39;9.30;86.01
69208;SHT31;70114;47.690;8.898;2023-10-31T04:52:04;9.30;86.05
69208;SHT31;70114;47.690;8.898;2023-10-31T04:54:30;9.27;86.00
69208;SHT31;70114;47.690;8.898;2023-10-31T04:56:55;9.27;85.53
69208;SHT31;70114;47.690;8.898;2023-10-31T04:59:21;9.24;85.09
69208;SHT31;70114;47.690;8.898;2023-10-31T05:01:50;9.23;85.20
69208;SHT31;70114;47.690;8.898;2023-10-31T05:04:20;9.29;85.26
69208;SHT31;70114;47.690;8.898;2023-10-31T05:06:45;9.24;85.00
69208;SHT31;70114;47.690;8.898;2023-10-31T05:09:11;9.36;84.76
69208;SHT31;70114;47.690;8.898;2023-10-31T05:11:37;9.32;84.86
69208;SHT31;70114;47.690;8.898;2023-10-31T05:14:02;9.30;84.89
69208;SHT31;70114;47.690;8.898;2023-10-31T05:16:27;9.34;84.63
69208;SHT31;70114;47.690;8.898;2023-10-31T05:18:53;9.39;84.63
69208;SHT31;70114;47.690;8.898;2023-10-31T05:21:19;9.36;84.60
69208;SHT31;70114;47.690;8.898;2023-10-31T05:23:45;9.37;84.10
69208;SHT31;70114;47.690;8.898;2023-10-31T05:26:11;9.30;84.06
69208;SHT31;70114;47.690;8.898;2023-10-31T05:28:36;9.40;83.88
69208;SHT31;70114;47.690;8.898;2023-10-31T05:31:01;9.41;83.82
69208;SHT31;70114;47.690;8.898;2023-10-31T05:33:27;9.43;83.76
69208;SHT31;70114;47.690;8.898;2023-10-31T05:35:52;9.40;83.47
69208;SHT31;70114;47.690;8.898;2023-10-31T05:38:17;9.41;83.58
69208;SHT31;70114;47.690;8.898;2023-10-31T05:40:43;9.46;83.75
69208;SHT31;70114;47.690;8.898;2023-10-31T05:43:08;9.44;83.29
69208;SHT31;70114;47.690;8.898;2023-10-31T05:45:34;9.37;83.35
69208;SHT31;70114;47.690;8.898;2023-10-31T05:47:59;9.37;83.68
69208;SHT31;70114;47.690;8.898;2023-10-31T05:50:24;9.37;83.86
69208;SHT31;70114;47.690;8.898;2023-10-31T05:52:50;9.46;83.88
69208;SHT31;70114;47.690;8.898;2023-10-31T05:55:15;9.41;84.03
69208;SHT31;70114;47.690;8.898;2023-10-31T05:57:41;9.48;83.88
69208;SHT31;70114;47.690;8.898;2023-10-31T06:00:07;9.48;84.00
69208;SHT31;70114;47.690;8.898;2023-10-31T06:02:33;9.43;84.03
69208;SHT31;70114;47.690;8.898;2023-10-31T06:04:59;9.40;84.05
69208;SHT31;70114;47.690;8.898;2023-10-31T06:07:24;9.36;84.16
69208;SHT31;70114;47.690;8.898;2023-10-31T06:09:49;9.30;84.24
69208;SHT31;70114;47.690;8.898;2023-10-31T06:12:15;9.30;84.31
69208;SHT31;70114;47.690;8.898;2023-10-31T06:14:41;9.34;84.16
69208;SHT31;70114;47.690;8.898;2023-10-31T06:17:06;9.33;84.16
69208;SHT31;70114;47.690;8.898;2023-10-31T06:19:36;9.41;84.23
69208;SHT31;70114;47.690;8.898;2023-10-31T06:22:01;9.41;83.89
69208;SHT31;70114;47.690;8.898;2023-10-31T06:24:27;9.43;84.10
69208;SHT31;70114;47.690;8.898;2023-10-31T06:26:52;9.48;83.97
69208;SHT31;70114;47.690;8.898;2023-10-31T06:29:18;9.52;83.53
69208;SHT31;70114;47.690;8.898;2023-10-31T06:31:43;9.50;83.59
69208;SHT31;70114;47.690;8.898;2023-10-31T06:34:08;9.47;83.78
69208;SHT31;70114;47.690;8.898;2023-10-31T06:36:34;9.46;83.52
69208;SHT31;70114;47.690;8.898;2023-10-31T06:38:59;9.51;83.38
69208;SHT31;70114;47.690;8.898;2023-10-31T06:41:25;9.57;83.15
69208;SHT31;70114;47.690;8.898;2023-10-31T06:43:50;9.58;83.27
69208;SHT31;70114;47.690;8.898;2023-10-31T06:46:15;9.52;83.18
69208;SHT31;70114;47.690;8.898;2023-10-31T06:48:41;9.54;83.13
69208;SHT31;70114;47.690;8.898;2023-10-31T06:51:07;9.62;83.30
69208;SHT31;70114;47.690;8.898;2023-10-31T06:53:32;9.58;83.19
69208;SHT31;70114;47.690;8.898;2023-10-31T06:55:57;9.61;83.31
69208;SHT31;70114;47.690;8.898;2023-10-31T06:58:23;9.60;83.29
69208;SHT31;70114;47.690;8.898;2023-10-31T07:00:48;9.71;83.49
69208;SHT31;70114;47.690;8.898;2023-10-31T07:03:13;9.67;83.32
69208;SHT31;70114;47.690;8.898;2023-10-31T07:05:41;9.65;83.13
69208;SHT31;70114;47.690;8.898;2023-10-31T07:08:07;9.73;83.31
69208;SHT31;70114;47.690;8.898;2023-10-31T07:10:32;9.68;83.30
69208;SHT31;70114;47.690;8.898;2023-10-31T07:12:58;9.74;83.48
69208;SHT31;70114;47.690;8.898;2023-10-31T07:15:25;9.78;83.39
69208;SHT31;70114;47.690;8.898;2023-10-31T07:17:50;9.67;83.41
69208;SHT31;70114;47.690;8.898;2023-10-31T07:20:15;9.74;83.42
69208;SHT31;70114;47.690;8.898;2023-10-31T07:22:41;9.78;83.58
69208;SHT31;70114;47.690;8.898;2023-10-31T07:25:07;9.78;83.19
69208;SHT31;70114;47.690;8.898;2023-10-31T07:27:32;9.87;83.25
69208;SHT31;70114;47.690;8.898;2023-10-31T07:29:58;9.87;83.13
69208;SHT31;70114;47.690;8.898;2023-10-31T07:32:24;9.75;83.15
69208;SHT31;70114;47.690;8.898;2023-10-31T07:34:50;9.85;83.42
69208;SHT31;70114;47.690;8.898;2023-10-31T07:37:15;9.84;83.23
69208;SHT31;70114;47.690;8.898;2023-10-31T07:39:40;9.81;83.63
69208;SHT31;70114;47.690;8.898;2023-10-31T07:42:07;9.84;83.12
69208;SHT31;70114;47.690;8.898;2023-10-31T07:44:32;9.79;83.10
69208;SHT31;70114;47.690;8.898;2023-10-31T07:46:57;9.82;83.49
69208;SHT31;70114;47.690;8.898;2023-10-31T07:49:23;9.78;83.35
69208;SHT31;70114;47.690;8.898;2023-10-31T07:51:48;9.74;83.56
69208;SHT31;70114;47.690;8.898;2023-10-31T07:54:14;9.75;83.84
69208;SHT31;70114;47.690;8.898;2023-10-31T07:56:41;9.77;83.72
69208;SHT31;70114;47.690;8.898;2023-10-31T07:59:07;9.74;83.91
69208;SHT31;70114;47.690;8.898;2023-10-31T08:01:36;9.70;84.47
69208;SHT31;70114;47.690;8.898;2023-10-31T08:04:02;9.71;84.23
69208;SHT31;70114;47.690;8.898;2023-10-31T08:06:27;9.82;84.32
69208;SHT31;70114;47.690;8.898;2023-10-31T08:08:53;9.88;84.42
69208;SHT31;70114;47.690;8.898;2023-10-31T08:11:18;9.89;85.02
69208;SHT31;70114;47.690;8.898;2023-10-31T08:13:43;9.95;84.73
69208;SHT31;70114;47.690;8.898;2023-10-31T08:16:09;9.97;84.64
69208;SHT31;70114;47.690;8.898;2023-10-31T08:18:35;9.87;85.23
69208;SHT31;70114;47.690;8.898;2023-10-31T08:21:01;9.91;85.61
69208;SHT31;70114;47.690;8.898;2023-10-31T08:23:28;9.91;85.92
69208;SHT31;70114;47.690;8.898;2023-10-31T08:25:53;9.81;85.98
69208;SHT31;70114;47.690;8.898;2023-10-31T08:28:19;9.82;85.98
69208;SHT31;70114;47.690;8.898;2023-10-31T08:30:44;9.91;86.20
69208;SHT31;70114;47.690;8.898;2023-10-31T08:33:10;9.81;86.20
69208;SHT31;70114;47.690;8.898;2023-10-31T08:35:35;9.79;86.12
69208;SHT31;70114;47.690;8.898;2023-10-31T08:38:01;9.75;86.69
69208;SHT31;70114;47.690;8.898;2023-10-31T08:40:26;9.73;86.49
69208;SHT31;70114;47.690;8.898;2023-10-31T08:42:51;9.77;86.34
69208;SHT31;70114;47.690;8.898;2023-10-31T08:45:17;9.84;86.51
69208;SHT31;70114;47.690;8.898;2023-10-31T08:47:43;9.77;86.12
69208;SHT31;70114;47.690;8.898;2023-10-31T08:50:08;9.84;86.59
69208;SHT31;70114;47.690;8.898;2023-10-31T08:52:34;9.89;86.66
69208;SHT31;70114;47.690;8.898;2023-10-31T08:55:00;9.82;86.42
69208;SHT31;70114;47.690;8.898;2023-10-31T08:57:25;9.84;86.95
69208;SHT31;70114;47.690;8.898;2023-10-31T08:59:50;9.94;86.26
69208;SHT31;70114;47.690;8.898;2023-10-31T09:02:16;10.06;85.89
69208;SHT31;70114;47.690;8.898;2023-10-31T09:04:42;10.03;85.73
69208;SHT31;70114;47.690;8.898;2023-10-31T09:07:07;10.01;85.87
69208;SHT31;70114;47.690;8.898;2023-10-31T09:09:32;9.92;86.27
69208;SHT31;70114;47.690;8.898;2023-10-31T09:11:58;9.92;86.40
69208;SHT31;70114;47.690;8.898;2023-10-31T09:14:23;9.89;86.37
69208;SHT31;70114;47.690;8.898;2023-10-31T09:16:49;9.95;86.49
69208;SHT31;70114;47.690;8.898;2023-10-31T09:19:14;9.87;86.23
69208;SHT31;70114;47.690;8.898;2023-10-31T09:21:40;10.02;86.37
69208;SHT31;70114;47.690;8.898;2023-10-31T09:24:06;10.01;86.22
69208;SHT31;70114;47.690;8.898;2023-10-31T09:26:32;10.03;85.98
69208;SHT31;70114;47.690;8.898;2023-10-31T09:28:58;10.09;86.11
69208;SHT31;70114;47.690;8.898;2023-10-31T09:31:24;9.98;86.18
69208;SHT31;70114;47.690;8.898;2023-10-31T09:33:49;10.09;86.04
69208;SHT31;70114;47.690;8.898;2023-10-31T09:36:14;10.20;85.94
69208;SHT31;70114;47.690;8.898;2023-10-31T09:38:40;10.20;85.49
69208;SHT31;70114;47.690;8.898;2023-10-31T09:41:06;10.28;85.76
69208;SHT31;70114;47.690;8.898;2023-10-31T09:43:32;10.26;85.67
69208;SHT31;70114;47.690;8.898;2023-10-31T09:45:57;10.37;85.42
69208;SHT31;70114;47.690;8.898;2023-10-31T09:48:23;10.43;84.97
69208;SHT31;70114;47.690;8.898;2023-10-31T09:50:49;10.57;84.76
69208;SHT31;70114;47.690;8.898;2023-10-31T09:53:15;10.47;84.39
69208;SHT31;70114;47.690;8.898;2023-10-31T09:55:44;10.56;84.29
69208;SHT31;70114;47.690;8.898;2023-10-31T09:58:10;10.67;84.22
69208;SHT31;70114;47.690;8.898;2023-10-31T10:00:35;10.66;84.14
69208;SHT31;70114;47.690;8.898;2023-10-31T10:03:03;10.63;84.12
69208;SHT31;70114;47.690;8.898;2023-10-31T10:05:30;10.71;84.01
69208;SHT31;70114;47.690;8.898;2023-10-31T10:07:56;10.81;83.86
69208;SHT31;70114;47.690;8.898;2023-10-31T10:10:21;10.80;83.55
69208;SHT31;70114;47.690;8.898;2023-10-31T10:12:48;10.90;83.21
69208;SHT31;70114;47.690;8.898;2023-10-31T10:15:13;11.02;83.39
69208;SHT31;70114;47.690;8.898;2023-10-31T10:17:39;11.02;82.77
69208;SHT31;70114;47.690;8.898;2023-10-31T10:20:09;11.10;82.83
69208;SHT31;70114;47.690;8.898;2023-10-31T10:22:40;11.14;82.62
69208;SHT31;70114;47.690;8.898;2023-10-31T10:25:07;11.15;82.59
69208;SHT31;70114;47.690;8.898;2023-10-31T10:27:33;11.14;82.20
69208;SHT31;70114;47.690;8.898;2023-10-31T10:29:58;11.35;82.08
69208;SHT31;70114;47.690;8.898;2023-10-31T10:32:23;11.23;81.53
69208;SHT31;70114;47.690;8.898;2023-10-31T10:34:49;11.36;81.78
69208;SHT31;70114;47.690;8.898;2023-10-31T10:37:15;11.50;81.32
69208;SHT31;70114;47.690;8.898;2023-10-31T10:39:44;11.52;81.29
69208;SHT31;70114;47.690;8.898;2023-10-31T10:42:17;11.52;80.87
69208;SHT31;70114;47.690;8.898;2023-10-31T10:44:44;11.50;81.45
69208;SHT31;70114;47.690;8.898;2023-10-31T10:47:12;11.52;80.79
69208;SHT31;70114;47.690;8.898;2023-10-31T10:49:41;11.46;80.51
69208;SHT31;70114;47.690;8.898;2023-10-31T10:52:17;11.56;80.94
69208;SHT31;70114;47.690;8.898;2023-10-31T10:55:10;11.56;80.58
69208;SHT31;70114;47.690;8.898;2023-10-31T10:57:48;11.63;80.67
69208;SHT31;70114;47.690;8.898;2023-10-31T11:00:19;11.62;80.63
69208;SHT31;70114;47.690;8.898;2023-10-31T11:02:51;11.73;80.66
69208;SHT31;70114;47.690;8.898;2023-10-31T11:05:17;11.70;80.27
69208;SHT31;70114;47.690;8.898;2023-10-31T11:07:43;11.74;79.76
69208;SHT31;70114;47.690;8.898;2023-10-31T11:10:09;11.76;79.17
69208;SHT31;70114;47.690;8.898;2023-10-31T11:12:36;11.88;79.62
69208;SHT31;70114;47.690;8.898;2023-10-31T11:15:03;11.77;79.42
69208;SHT31;70114;47.690;8.898;2023-10-31T11:17:34;11.87;79.36
69208;SHT31;70114;47.690;8.898;2023-10-31T11:20:01;11.91;79.20
69208;SHT31;70114;47.690;8.898;2023-10-31T11:22:54;11.94;79.01
69208;SHT31;70114;47.690;8.898;2023-10-31T11:25:21;11.98;78.80
69208;SHT31;70114;47.690;8.898;2023-10-31T11:27:52;12.04;79.28
69208;SHT31;70114;47.690;8.898;2023-10-31T11:32:53;12.01;78.71
69208;SHT31;70114;47.690;8.898;2023-10-31T11:35:19;12.05;79.16
69208;SHT31;70114;47.690;8.898;2023-10-31T11:38:00;12.08;79.00
69208;SHT31;70114;47.690;8.898;2023-10-31T11:40:27;12.10;78.76
69208;SHT31;70114;47.690;8.898;2023-10-31T11:42:56;12.05;78.32
69208;SHT31;70114;47.690;8.898;2023-10-31T11:45:44;11.90;79.01
69208;SHT31;70114;47.690;8.898;2023-10-31T11:48:13;11.95;78.72
69208;SHT31;70114;47.690;8.898;2023-10-31T11:50:39;11.98;78.71
69208;SHT31;70114;47.690;8.898;2023-10-31T11:53:06;12.04;78.55
69208;SHT31;70114;47.690;8.898;2023-10-31T11:55:33;12.11;78.99
69208;SHT31;70114;47.690;8.898;2023-10-31T11:58:15;12.08;78.93
69208;SHT31;70114;47.690;8.898;2023-10-31T12:00:40;12.08;78.93
69208;SHT31;70114;47.690;8.898;2023-10-31T12:03:05;12.00;78.57
69208;SHT31;70114;47.690;8.898;2023-10-31T12:05:31;12.10;78.91
69208;SHT31;70114;47.690;8.898;2023-10-31T12:07:56;12.16;79.49
69208;SHT31;70114;47.690;8.898;2023-10-31T12:10:27;12.22;79.25
69208;SHT31;70114;47.690;8.898;2023-10-31T12:12:55;12.18;79.84
69208;SHT31;70114;47.690;8.898;2023-10-31T12:15:21;12.11;80.02
69208;SHT31;70114;47.690;8.898;2023-10-31T12:17:48;12.17;80.60
69208;SHT31;70114;47.690;8.898;2023-10-31T12:20:13;12.17;80.72
69208;SHT31;70114;47.690;8.898;2023-10-31T12:22:39;12.04;80.30
69208;SHT31;70114;47.690;8.898;2023-10-31T12:25:07;11.94;80.52
69208;SHT31;70114;47.690;8.898;2023-10-31T12:30:19;11.97;80.64
69208;SHT31;70114;47.690;8.898;2023-10-31T12:32:46;11.86;80.43
69208;SHT31;70114;47.690;8.898;2023-10-31T12:35:21;11.90;80.97
69208;SHT31;70114;47.690;8.898;2023-10-31T12:37:48;11.81;81.09
69208;SHT31;70114;47.690;8.898;2023-10-31T12:40:17;11.88;80.83
69208;SHT31;70114;47.690;8.898;2023-10-31T12:42:43;11.94;80.80
69208;SHT31;70114;47.690;8.898;2023-10-31T12:45:09;11.94;81.05
69208;SHT31;70114;47.690;8.898;2023-10-31T12:47:35;11.94;81.23
69208;SHT31;70114;47.690;8.898;2023-10-31T12:50:14;11.90;81.10
69208;SHT31;70114;47.690;8.898;2023-10-31T12:52:54;11.80;80.25
69208;SHT31;70114;47.690;8.898;2023-10-31T12:55:22;11.79;80.97
69208;SHT31;70114;47.690;8.898;2023-10-31T12:57:49;11.71;80.49
69208;SHT31;70114;47.690;8.898;2023-10-31T13:00:15;11.69;80.84
69208;SHT31;70114;47.690;8.898;2023-10-31T13:02:44;11.71;80.77
69208;SHT31;70114;47.690;8.898;2023-10-31T13:05:16;11.62;80.57
69208;SHT31;70114;47.690;8.898;2023-10-31T13:07:49;11.66;81.13
69208;SHT31;70114;47.690;8.898;2023-10-31T13:10:16;11.65;80.68
69208;SHT31;70114;47.690;8.898;2023-10-31T13:13:01;11.71;80.96
69208;SHT31;70114;47.690;8.898;2023-10-31T13:15:27;11.70;81.10
69208;SHT31;70114;47.690;8.898;2023-10-31T13:17:53;11.71;81.47
69208;SHT31;70114;47.690;8.898;2023-10-31T13:20:19;11.60;81.15
69208;SHT31;70114;47.690;8.898;2023-10-31T13:22:45;11.69;81.14
69208;SHT31;70114;47.690;8.898;2023-10-31T13:25:12;11.73;81.30
69208;SHT31;70114;47.690;8.898;2023-10-31T13:27:39;11.58;81.50
69208;SHT31;70114;47.690;8.898;2023-10-31T13:30:06;11.60;81.48
69208;SHT31;70114;47.690;8.898;2023-10-31T13:32:32;11.67;81.42
69208;SHT31;70114;47.690;8.898;2023-10-31T13:34:57;11.53;81.67
69208;SHT31;70114;47.690;8.898;2023-10-31T13:37:23;11.58;81.61
69208;SHT31;70114;47.690;8.898;2023-10-31T13:39:48;11.52;81.77
69208;SHT31;70114;47.690;8.898;2023-10-31T13:42:14;11.40;82.37
69208;SHT31;70114;47.690;8.898;2023-10-31T13:44:40;11.42;83.06
69208;SHT31;70114;47.690;8.898;2023-10-31T13:47:06;11.55;82.93
69208;SHT31;70114;47.690;8.898;2023-10-31T13:49:32;11.52;82.77
69208;SHT31;70114;47.690;8.898;2023-10-31T13:51:57;11.65;82.38
69208;SHT31;70114;47.690;8.898;2023-10-31T13:54:23;11.58;82.54
69208;SHT31;70114;47.690;8.898;2023-10-31T13:56:48;11.47;82.98
69208;SHT31;70114;47.690;8.898;2023-10-31T13:59:14;11.55;83.17
69208;SHT31;70114;47.690;8.898;2023-10-31T14:01:40;11.50;83.39
69208;SHT31;70114;47.690;8.898;2023-10-31T14:04:09;11.50;83.69
69208;SHT31;70114;47.690;8.898;2023-10-31T14:06:35;11.50;84.70
69208;SHT31;70114;47.690;8.898;2023-10-31T14:09:02;11.46;84.32
69208;SHT31;70114;47.690;8.898;2023-10-31T14:11:32;11.42;84.16
69208;SHT31;70114;47.690;8.898;2023-10-31T14:13:59;11.43;84.34
69208;SHT31;70114;47.690;8.898;2023-10-31T14:16:28;11.42;84.33
69208;SHT31;70114;47.690;8.898;2023-10-31T14:18:55;11.32;84.47
69208;SHT31;70114;47.690;8.898;2023-10-31T14:21:20;11.18;84.67
69208;SHT31;70114;47.690;8.898;2023-10-31T14:23:46;11.04;85.00
69208;SHT31;70114;47.690;8.898;2023-10-31T14:26:22;11.18;85.10
69208;SHT31;70114;47.690;8.898;2023-10-31T14:28:47;11.14;85.27
69208;SHT31;70114;47.690;8.898;2023-10-31T14:31:14;11.22;85.17
69208;SHT31;70114;47.690;8.898;2023-10-31T14:33:46;11.12;85.11
69208;SHT31;70114;47.690;8.898;2023-10-31T14:36:11;11.10;85.25
69208;SHT31;70114;47.690;8.898;2023-10-31T14:38:38;11.21;85.64
69208;SHT31;70114;47.690;8.898;2023-10-31T14:41:04;11.23;85.49
69208;SHT31;70114;47.690;8.898;2023-10-31T14:43:30;11.22;85.36
69208;SHT31;70114;47.690;8.898;2023-10-31T14:45:56;11.22;85.49
69208;SHT31;70114;47.690;8.898;2023-10-31T14:48:22;11.19;85.31
69208;SHT31;70114;47.690;8.898;2023-10-31T14:50:47;11.25;85.35
69208;SHT31;70114;47.690;8.898;2023-10-31T14:53:16;11.10;85.11
69208;SHT31;70114;47.690;8.898;2023-10-31T14:55:42;11.04;85.43
69208;SHT31;70114;47.690;8.898;2023-10-31T14:58:07;11.00;85.20
69208;SHT31;70114;47.690;8.898;2023-10-31T15:00:34;11.00;85.13
69208;SHT31;70114;47.690;8.898;2023-10-31T15:02:59;11.00;85.28
69208;SHT31;70114;47.690;8.898;2023-10-31T15:05:25;10.90;85.28
69208;SHT31;70114;47.690;8.898;2023-10-31T15:07:50;11.04;85.36
69208;SHT31;70114;47.690;8.898;2023-10-31T15:10:16;11.05;85.30
69208;SHT31;70114;47.690;8.898;2023-10-31T15:12:41;11.01;85.00
69208;SHT31;70114;47.690;8.898;2023-10-31T15:15:07;10.98;84.49
69208;SHT31;70114;47.690;8.898;2023-10-31T15:17:33;10.88;84.04
69208;SHT31;70114;47.690;8.898;2023-10-31T15:19:59;10.81;82.82
69208;SHT31;70114;47.690;8.898;2023-10-31T15:22:24;10.83;82.59
69208;SHT31;70114;47.690;8.898;2023-10-31T15:24:50;10.90;83.00
69208;SHT31;70114;47.690;8.898;2023-10-31T15:27:15;10.94;82.77
69208;SHT31;70114;47.690;8.898;2023-10-31T15:29:43;10.94;82.59
69208;SHT31;70114;47.690;8.898;2023-10-31T15:32:09;10.88;82.74
69208;SHT31;70114;47.690;8.898;2023-10-31T15:34:34;10.83;82.43
69208;SHT31;70114;47.690;8.898;2023-10-31T15:37:02;10.83;83.00